Terminal Aerodrome Forecast
Issued by NWS

Home | Current Version | Previous Version | Text Only | Print | Product List | Glossary On
Versions: 1 2 3 4 5 6 7 8 9 10 11 12 13 14 15
000
FTUS43 KDTX 240500
TAFDET
TAF
KDET 240525Z 2406/2506 01007KT P6SM SCT050 BKN100
     FM240800 35006KT P6SM SKC
     FM241400 01007KT P6SM SCT050
     FM242100 33007KT P6SM FEW060
     FM250200 VRB03KT P6SM SKC=

USA.gov is the U.S. government's official web portal to all federal, state and local government web resources and services.